createdAt,value
2023-02-26T00:00:48.739Z,0.20
2023-02-26T00:03:18.510Z,0.33
2023-02-26T00:05:47.964Z,0.40
2023-02-26T00:08:18.179Z,0.27
2023-02-26T00:10:48.763Z,0.30
2023-02-26T00:13:18.760Z,0.30
2023-02-26T00:15:51.561Z,0.33
2023-02-26T00:18:21.523Z,0.27
2023-02-26T00:20:51.689Z,0.30
2023-02-26T00:23:21.575Z,0.27
2023-02-26T00:25:51.033Z,0.50
2023-02-26T00:28:20.897Z,0.30
2023-02-26T00:30:50.672Z,0.30
2023-02-26T00:33:21.095Z,0.20
2023-02-26T00:35:53.796Z,0.30
2023-02-26T00:38:24.185Z,0.23
2023-02-26T00:40:55.604Z,0.30
2023-02-26T00:43:27.446Z,0.30
2023-02-26T00:46:26.137Z,0.40
2023-02-26T00:49:21.055Z,0.20
2023-02-26T00:52:07.101Z,0.20
2023-02-26T00:54:36.544Z,0.10
2023-02-26T00:57:06.775Z,0.30
2023-02-26T00:59:36.228Z,0.40
2023-02-26T01:02:05.674Z,0.40
2023-02-26T01:04:35.757Z,0.40
2023-02-26T01:07:05.690Z,0.20
2023-02-26T01:09:38.654Z,0.30
2023-02-26T01:12:15.079Z,0.30
2023-02-26T01:14:47.176Z,0.23
2023-02-26T01:17:26.927Z,0.30
2023-02-26T01:20:18.892Z,0.20
2023-02-26T01:23:10.281Z,0.30
2023-02-26T01:25:44.321Z,0.20
2023-02-26T01:28:14.427Z,0.20
2023-02-26T01:30:45.892Z,0.30
2023-02-26T01:33:38.237Z,0.30
2023-02-26T01:36:18.274Z,0.30
2023-02-26T01:38:52.364Z,0.33
2023-02-26T01:41:55.428Z,0.50
2023-02-26T01:44:32.361Z,0.20
2023-02-26T01:47:33.269Z,0.30
2023-02-26T01:50:12.966Z,0.30
2023-02-26T01:53:12.611Z,0.40
2023-02-26T01:55:46.596Z,0.40
2023-02-26T01:58:17.171Z,0.30
2023-02-26T02:00:46.792Z,0.30
2023-02-26T02:03:16.694Z,0.40
2023-02-26T02:05:53.736Z,0.33
2023-02-26T02:08:23.834Z,0.20
2023-02-26T02:10:54.543Z,0.20
2023-02-26T02:13:37.590Z,0.23
2023-02-26T02:16:17.952Z,0.30
2023-02-26T02:19:14.901Z,0.23
2023-02-26T02:22:17.313Z,0.30
2023-02-26T02:25:07.794Z,0.30
2023-02-26T02:28:05.685Z,0.33
2023-02-26T02:30:54.765Z,0.40
2023-02-26T02:33:31.639Z,0.37
2023-02-26T02:36:11.242Z,0.30
2023-02-26T02:38:53.738Z,0.37
2023-02-26T02:41:27.779Z,0.20
2023-02-26T02:44:00.483Z,0.20
2023-02-26T02:46:34.698Z,0.30
2023-02-26T02:49:08.796Z,0.20
2023-02-26T02:51:54.181Z,0.37
2023-02-26T02:54:28.250Z,0.37
2023-02-26T02:57:05.072Z,0.27
2023-02-26T02:59:48.168Z,0.40
2023-02-26T03:02:36.702Z,0.10
2023-02-26T03:05:06.868Z,0.30
2023-02-26T03:07:40.922Z,0.30
2023-02-26T03:10:11.469Z,0.30
2023-02-26T03:12:40.917Z,0.43
2023-02-26T03:15:11.547Z,0.30
2023-02-26T03:18:08.095Z,0.40
2023-02-26T03:20:44.941Z,0.30
2023-02-26T03:23:30.625Z,0.30
2023-02-26T03:26:16.620Z,0.30
2023-02-26T03:28:59.927Z,0.30
2023-02-26T03:31:34.083Z,0.43
2023-02-26T03:34:19.735Z,0.40
2023-02-26T03:37:02.690Z,0.47
2023-02-26T03:39:42.810Z,0.30
2023-02-26T03:42:19.363Z,0.30
2023-02-26T03:45:01.994Z,0.37
2023-02-26T03:47:34.863Z,0.50
2023-02-26T03:50:29.894Z,0.40
2023-02-26T03:53:03.332Z,0.30
2023-02-26T03:55:49.448Z,0.30
2023-02-26T03:58:19.458Z,0.30
2023-02-26T04:00:55.065Z,0.40
2023-02-26T04:03:31.476Z,0.30
2023-02-26T04:06:03.332Z,0.30
2023-02-26T04:08:32.909Z,0.40
2023-02-26T04:11:09.967Z,0.30
2023-02-26T04:13:39.409Z,0.23
2023-02-26T04:16:09.065Z,0.40
2023-02-26T04:18:38.475Z,0.27
2023-02-26T04:21:08.122Z,0.20
2023-02-26T04:23:37.561Z,0.23
2023-02-26T04:26:07.272Z,0.30
2023-02-26T04:28:37.883Z,0.30
2023-02-26T04:31:10.247Z,0.20
2023-02-26T04:33:40.051Z,0.37
2023-02-26T04:36:10.547Z,0.20
2023-02-26T04:38:40.174Z,0.40
2023-02-26T04:41:09.897Z,0.30
2023-02-26T04:43:39.336Z,0.43
2023-02-26T04:46:08.873Z,0.30
2023-02-26T04:48:38.288Z,0.30
2023-02-26T04:51:08.140Z,0.20
2023-02-26T04:53:37.639Z,0.30
2023-02-26T04:56:07.804Z,0.30
2023-02-26T04:58:37.232Z,0.30
2023-02-26T05:01:06.842Z,0.20
2023-02-26T05:03:36.341Z,0.20
2023-02-26T05:06:05.998Z,0.37
2023-02-26T05:08:35.498Z,0.37
2023-02-26T05:11:04.947Z,0.20
2023-02-26T05:13:34.416Z,0.43
2023-02-26T05:16:03.882Z,0.20
2023-02-26T05:18:33.362Z,0.40
2023-02-26T05:21:02.809Z,0.30
2023-02-26T05:23:32.299Z,0.40
2023-02-26T05:26:01.926Z,0.30
2023-02-26T05:28:31.866Z,0.50
2023-02-26T05:31:01.617Z,0.30
2023-02-26T05:33:31.099Z,0.30
2023-02-26T05:36:00.554Z,0.40
2023-02-26T05:38:30.052Z,0.40
2023-02-26T05:41:00.509Z,0.20
2023-02-26T05:43:30.197Z,0.60
2023-02-26T05:45:59.656Z,0.20
2023-02-26T05:48:29.188Z,0.40
2023-02-26T05:50:58.612Z,0.37
2023-02-26T05:53:28.228Z,0.50
2023-02-26T05:55:57.687Z,0.20
2023-02-26T05:58:27.119Z,0.30
2023-02-26T06:00:56.676Z,0.30
2023-02-26T06:03:26.117Z,0.27
2023-02-26T06:05:55.656Z,0.20
2023-02-26T06:08:25.395Z,0.30
2023-02-26T06:10:54.817Z,0.30
2023-02-26T06:13:24.321Z,0.20
2023-02-26T06:15:53.927Z,0.27
2023-02-26T06:18:23.936Z,0.30
2023-02-26T06:20:53.430Z,0.20
2023-02-26T06:23:22.842Z,0.40
2023-02-26T06:25:55.285Z,0.30
2023-02-26T06:28:24.782Z,0.30
2023-02-26T06:30:57.688Z,0.30
2023-02-26T06:33:27.470Z,0.20
2023-02-26T06:35:57.999Z,0.30
2023-02-26T06:38:28.514Z,0.30
2023-02-26T06:40:58.182Z,0.40
2023-02-26T06:43:27.691Z,0.30
2023-02-26T06:45:59.890Z,0.30
2023-02-26T06:48:30.053Z,0.20
2023-02-26T06:50:59.793Z,0.20
2023-02-26T06:53:29.256Z,0.40
2023-02-26T06:55:58.721Z,0.30
2023-02-26T06:58:28.133Z,0.30
2023-02-26T07:00:57.828Z,0.30
2023-02-26T07:03:27.363Z,0.67
2023-02-26T07:05:58.226Z,0.50
2023-02-26T07:08:28.621Z,0.30
2023-02-26T07:10:58.070Z,0.30
2023-02-26T07:13:27.500Z,0.30
2023-02-26T07:15:56.969Z,0.30
2023-02-26T07:18:26.404Z,0.30
2023-02-26T07:20:55.890Z,0.37
2023-02-26T07:23:25.494Z,0.30
2023-02-26T07:25:55.029Z,0.20
2023-02-26T07:28:25.402Z,0.30
2023-02-26T07:30:57.388Z,0.27
2023-02-26T07:33:28.448Z,0.40
2023-02-26T07:35:57.936Z,0.60
2023-02-26T07:38:27.378Z,0.40
2023-02-26T07:40:57.730Z,0.37
2023-02-26T07:43:27.291Z,0.30
2023-02-26T07:45:56.796Z,0.50
2023-02-26T07:48:26.243Z,0.20
2023-02-26T07:50:56.039Z,0.30
2023-02-26T07:53:25.467Z,0.30
2023-02-26T07:55:54.983Z,0.30
2023-02-26T07:58:24.427Z,0.30
2023-02-26T08:00:53.862Z,0.30
2023-02-26T08:03:23.367Z,0.40
2023-02-26T08:05:52.833Z,0.83
2023-02-26T08:08:22.291Z,0.40
2023-02-26T08:10:51.825Z,0.50
2023-02-26T08:13:21.313Z,0.40
2023-02-26T08:15:50.807Z,0.50
2023-02-26T08:18:20.940Z,0.60
2023-02-26T08:20:52.627Z,0.30
2023-02-26T08:23:22.064Z,0.30
2023-02-26T08:25:51.526Z,0.40
2023-02-26T08:28:20.940Z,0.30
2023-02-26T08:30:53.972Z,0.40
2023-02-26T08:33:25.672Z,0.30
2023-02-26T08:35:56.933Z,0.57
2023-02-26T08:38:30.729Z,0.40
2023-02-26T08:41:00.880Z,0.40
2023-02-26T08:43:30.598Z,0.40
2023-02-26T08:46:00.611Z,0.30
2023-02-26T08:48:30.032Z,0.40
2023-02-26T08:50:59.467Z,0.33
2023-02-26T08:53:28.906Z,0.50
2023-02-26T08:55:58.360Z,0.30
2023-02-26T08:58:27.790Z,0.40
2023-02-26T09:00:57.235Z,0.43
2023-02-26T09:03:26.662Z,0.40
2023-02-26T09:05:56.137Z,0.60
2023-02-26T09:08:25.583Z,0.50
2023-02-26T09:10:55.012Z,0.53
2023-02-26T09:13:24.553Z,0.50
2023-02-26T09:15:54.027Z,0.70
2023-02-26T09:18:23.637Z,0.50
2023-02-26T09:20:53.118Z,0.50
2023-02-26T09:23:22.789Z,0.70
2023-02-26T09:25:59.461Z,0.60
2023-02-26T09:28:28.978Z,0.50
2023-02-26T09:30:58.538Z,0.70
2023-02-26T09:33:28.196Z,0.60
2023-02-26T09:35:57.640Z,0.50
2023-02-26T09:38:27.428Z,0.53
2023-02-26T09:41:01.773Z,0.30
2023-02-26T09:43:54.155Z,0.37
2023-02-26T09:46:39.952Z,0.60
2023-02-26T09:49:25.632Z,0.40
2023-02-26T09:51:59.877Z,0.77
2023-02-26T09:54:33.937Z,0.60
2023-02-26T09:57:06.880Z,0.50
2023-02-26T09:59:36.391Z,0.60
2023-02-26T10:02:10.490Z,0.47
2023-02-26T10:05:08.679Z,0.30
2023-02-26T10:07:57.173Z,0.43
2023-02-26T10:10:46.220Z,0.40
2023-02-26T10:13:28.713Z,0.67
2023-02-26T10:16:02.921Z,0.60
2023-02-26T10:18:37.294Z,0.40
2023-02-26T10:21:14.281Z,0.37
2023-02-26T10:23:53.778Z,0.43
2023-02-26T10:26:28.231Z,0.50
2023-02-26T10:29:18.011Z,0.40
2023-02-26T10:32:28.109Z,0.40
2023-02-26T10:35:11.287Z,0.50
2023-02-26T10:38:08.796Z,0.50
2023-02-26T10:40:59.384Z,0.40
2023-02-26T10:43:45.056Z,0.50
2023-02-26T10:46:37.331Z,0.40
2023-02-26T10:49:35.196Z,0.70
2023-02-26T10:52:18.308Z,0.60
2023-02-26T10:55:10.681Z,0.43
2023-02-26T10:57:47.386Z,0.30
2023-02-26T11:00:20.968Z,0.40
2023-02-26T11:02:54.692Z,0.40
2023-02-26T11:05:28.843Z,0.80
2023-02-26T11:08:03.084Z,0.30
2023-02-26T11:10:51.764Z,0.43
2023-02-26T11:13:24.132Z,0.47
2023-02-26T11:15:57.766Z,0.60
2023-02-26T11:18:31.866Z,0.60
2023-02-26T11:21:04.274Z,0.50
2023-02-26T11:23:35.322Z,0.60
2023-02-26T11:26:17.430Z,0.47
2023-02-26T11:28:51.242Z,0.40
2023-02-26T11:31:25.626Z,0.60
2023-02-26T11:34:02.406Z,0.87
2023-02-26T11:36:35.306Z,0.50
2023-02-26T11:39:15.190Z,0.53
2023-02-26T11:41:49.737Z,0.33
2023-02-26T11:44:24.116Z,0.50
2023-02-26T11:46:59.695Z,0.57
2023-02-26T11:49:30.645Z,0.80
2023-02-26T11:52:13.507Z,0.60
2023-02-26T11:54:44.469Z,0.43
2023-02-26T11:57:18.521Z,0.60
2023-02-26T11:59:54.134Z,0.40
2023-02-26T12:02:29.496Z,0.57
2023-02-26T12:05:04.173Z,0.40
2023-02-26T12:07:33.742Z,0.57
2023-02-26T12:10:03.325Z,0.20
2023-02-26T12:12:55.196Z,0.60
2023-02-26T12:15:50.485Z,0.40
2023-02-26T12:18:24.524Z,0.40
2023-02-26T12:21:13.368Z,0.60
2023-02-26T12:24:27.706Z,0.40
2023-02-26T12:27:25.658Z,0.30
2023-02-26T12:30:11.577Z,0.60
2023-02-26T12:33:02.349Z,0.43
2023-02-26T12:35:36.401Z,0.57
2023-02-26T12:38:40.112Z,0.20
2023-02-26T12:41:50.655Z,0.60
2023-02-26T12:44:33.432Z,0.40
2023-02-26T12:47:26.691Z,0.50
2023-02-26T12:50:02.376Z,0.50
2023-02-26T12:53:00.045Z,0.40
2023-02-26T12:55:53.954Z,0.50
2023-02-26T12:58:43.165Z,0.53
2023-02-26T13:01:55.976Z,0.43
2023-02-26T13:04:36.568Z,0.60
2023-02-26T13:07:22.408Z,0.50
2023-02-26T13:10:32.587Z,0.57
2023-02-26T13:13:35.706Z,0.70
2023-02-26T13:16:56.158Z,0.90
2023-02-26T13:20:00.359Z,0.43
2023-02-26T13:22:37.226Z,0.50
2023-02-26T13:25:28.940Z,0.40
2023-02-26T13:28:02.197Z,0.40
2023-02-26T13:30:36.278Z,0.30
2023-02-26T13:33:07.434Z,0.30
2023-02-26T13:35:43.168Z,0.30
2023-02-26T13:38:35.434Z,0.30
2023-02-26T13:41:24.735Z,0.30
2023-02-26T13:44:31.009Z,0.40
2023-02-26T13:47:38.560Z,0.60
2023-02-26T13:50:57.907Z,0.37
2023-02-26T13:53:38.019Z,0.30
2023-02-26T13:56:36.276Z,0.30
2023-02-26T13:59:20.542Z,0.40
2023-02-26T14:01:57.217Z,0.50
2023-02-26T14:04:31.085Z,0.70
2023-02-26T14:07:14.128Z,0.50
2023-02-26T14:09:52.114Z,0.57
2023-02-26T14:12:40.982Z,0.40
2023-02-26T14:15:20.144Z,0.40
2023-02-26T14:17:52.735Z,0.40
2023-02-26T14:20:29.361Z,0.50
2023-02-26T14:23:12.401Z,0.30
2023-02-26T14:25:52.771Z,0.40
2023-02-26T14:28:35.949Z,0.40
2023-02-26T14:31:15.831Z,0.20
2023-02-26T14:34:04.921Z,0.60
2023-02-26T14:36:50.940Z,0.50
2023-02-26T14:39:36.747Z,0.40
2023-02-26T14:42:31.326Z,0.40
2023-02-26T14:45:20.089Z,0.47
2023-02-26T14:47:51.646Z,0.40
2023-02-26T14:50:23.878Z,0.37
2023-02-26T14:52:57.929Z,0.40
2023-02-26T14:55:37.532Z,0.20
2023-02-26T14:58:31.894Z,0.30
2023-02-26T15:01:24.244Z,0.40
2023-02-26T15:04:36.361Z,0.20
2023-02-26T15:07:19.447Z,0.40
2023-02-26T15:10:18.338Z,0.40
2023-02-26T15:13:30.015Z,0.60
2023-02-26T15:16:18.956Z,0.60
2023-02-26T15:19:05.185Z,0.60
2023-02-26T15:21:47.770Z,0.43
2023-02-26T15:24:17.875Z,0.37
2023-02-26T15:26:54.850Z,0.40
2023-02-26T15:29:29.305Z,0.43
2023-02-26T15:32:24.900Z,0.40
2023-02-26T15:35:08.000Z,0.30
2023-02-26T15:37:38.508Z,0.40
2023-02-26T15:40:09.210Z,0.40
2023-02-26T15:42:42.410Z,0.30
2023-02-26T15:45:31.450Z,0.20
2023-02-26T15:48:05.183Z,0.40
2023-02-26T15:50:39.261Z,0.83
2023-02-26T15:53:16.299Z,1.80
2023-02-26T15:55:50.386Z,1.30
2023-02-26T15:58:30.017Z,0.87
2023-02-26T16:01:03.323Z,0.97
2023-02-26T16:03:39.142Z,0.60
2023-02-26T16:06:12.370Z,0.50
2023-02-26T16:08:41.846Z,0.50
2023-02-26T16:11:13.880Z,0.50
2023-02-26T16:13:46.343Z,0.40
2023-02-26T16:16:29.162Z,0.30
2023-02-26T16:18:59.908Z,0.20
2023-02-26T16:21:33.940Z,0.40
2023-02-26T16:24:06.896Z,0.30
2023-02-26T16:26:41.081Z,0.40
2023-02-26T16:29:20.275Z,0.30
2023-02-26T16:31:54.231Z,0.10
2023-02-26T16:34:51.824Z,0.30
2023-02-26T16:37:36.190Z,0.30
2023-02-26T16:40:20.114Z,0.30
2023-02-26T16:42:59.434Z,0.80
2023-02-26T16:45:47.165Z,0.90
2023-02-26T16:48:23.967Z,1.00
2023-02-26T16:51:02.320Z,1.10
2023-02-26T16:53:36.385Z,0.80
2023-02-26T16:56:07.220Z,0.60
2023-02-26T16:58:37.180Z,0.50
2023-02-26T17:01:11.372Z,0.33
2023-02-26T17:03:42.640Z,0.30
2023-02-26T17:06:18.213Z,0.47
2023-02-26T17:09:01.220Z,0.97
2023-02-26T17:11:38.521Z,0.47
2023-02-26T17:14:27.540Z,0.30
2023-02-26T17:16:57.014Z,0.30
2023-02-26T17:19:26.447Z,0.30
2023-02-26T17:21:59.167Z,0.40
2023-02-26T17:24:36.389Z,0.33
2023-02-26T17:27:07.932Z,0.30
2023-02-26T17:29:44.983Z,0.40
2023-02-26T17:32:24.198Z,0.20
2023-02-26T17:34:54.369Z,0.20
2023-02-26T17:37:27.901Z,0.33
2023-02-26T17:39:59.042Z,0.20
2023-02-26T17:42:28.574Z,0.20
2023-02-26T17:44:57.981Z,0.40
2023-02-26T17:47:28.610Z,0.20
2023-02-26T17:49:58.055Z,0.30
2023-02-26T17:52:27.508Z,0.20
2023-02-26T17:54:56.952Z,0.30
2023-02-26T17:57:28.708Z,0.33
2023-02-26T17:59:58.205Z,0.30
2023-02-26T18:02:27.834Z,0.30
2023-02-26T18:04:57.495Z,0.30
2023-02-26T18:07:27.586Z,0.40
2023-02-26T18:09:57.092Z,0.30
2023-02-26T18:12:26.511Z,0.40
2023-02-26T18:14:56.186Z,0.20
2023-02-26T18:17:31.186Z,0.30
2023-02-26T18:20:00.614Z,0.20
2023-02-26T18:22:30.129Z,0.30
2023-02-26T18:24:59.568Z,0.20
2023-02-26T18:27:30.133Z,0.20
2023-02-26T18:30:01.284Z,0.30
2023-02-26T18:32:31.503Z,0.40
2023-02-26T18:35:01.059Z,0.40
2023-02-26T18:37:30.487Z,0.33
2023-02-26T18:40:00.003Z,0.33
2023-02-26T18:42:30.011Z,0.30
2023-02-26T18:44:59.634Z,0.30
2023-02-26T18:47:29.141Z,0.20
2023-02-26T18:49:58.573Z,0.33
2023-02-26T18:52:28.100Z,0.20
2023-02-26T18:54:57.545Z,0.30
2023-02-26T18:57:26.985Z,0.30
2023-02-26T18:59:56.829Z,0.23
2023-02-26T19:02:27.764Z,0.23
2023-02-26T19:04:57.254Z,0.10
2023-02-26T19:07:26.749Z,0.20
2023-02-26T19:09:56.200Z,0.20
2023-02-26T19:12:26.447Z,0.47
2023-02-26T19:14:55.926Z,0.30
2023-02-26T19:17:25.350Z,0.40
2023-02-26T19:19:54.799Z,0.20
2023-02-26T19:22:24.225Z,0.40
2023-02-26T19:24:54.774Z,0.30
2023-02-26T19:27:24.363Z,0.30
2023-02-26T19:29:53.883Z,0.27
2023-02-26T19:32:23.789Z,0.20
2023-02-26T19:34:53.481Z,0.40
2023-02-26T19:37:23.251Z,0.40
2023-02-26T19:39:52.768Z,0.40
2023-02-26T19:42:24.255Z,0.50
2023-02-26T19:44:53.727Z,0.40
2023-02-26T19:47:23.554Z,0.20
2023-02-26T19:49:52.989Z,0.40
2023-02-26T19:52:22.402Z,0.40
2023-02-26T19:54:51.863Z,0.33
2023-02-26T19:57:21.306Z,0.57
2023-02-26T19:59:50.796Z,0.50
2023-02-26T20:02:20.237Z,0.50
2023-02-26T20:04:49.708Z,0.50
2023-02-26T20:07:19.511Z,0.53
2023-02-26T20:09:49.845Z,0.60
2023-02-26T20:12:19.783Z,0.63
2023-02-26T20:14:49.286Z,0.40
2023-02-26T20:17:18.732Z,0.30
2023-02-26T20:19:48.231Z,0.50
2023-02-26T20:22:17.917Z,0.50
2023-02-26T20:24:47.430Z,0.20
2023-02-26T20:27:16.863Z,0.40
2023-02-26T20:29:46.735Z,0.47
2023-02-26T20:32:16.435Z,0.50
2023-02-26T20:34:46.101Z,0.50
2023-02-26T20:37:15.538Z,0.20
2023-02-26T20:39:44.989Z,0.40
2023-02-26T20:42:14.489Z,0.50
2023-02-26T20:44:44.319Z,0.30
2023-02-26T20:47:13.779Z,0.50
2023-02-26T20:49:43.207Z,0.30
2023-02-26T20:52:12.720Z,0.30
2023-02-26T20:54:42.292Z,0.40
2023-02-26T20:57:12.314Z,0.23
2023-02-26T20:59:41.751Z,0.40
2023-02-26T21:02:15.626Z,0.70
2023-02-26T21:04:45.179Z,0.60
2023-02-26T21:07:16.494Z,0.33
2023-02-26T21:09:47.571Z,0.30
2023-02-26T21:12:18.140Z,0.40
2023-02-26T21:14:47.662Z,0.27
2023-02-26T21:17:17.116Z,0.30
2023-02-26T21:19:46.793Z,0.40
2023-02-26T21:22:16.741Z,0.40
2023-02-26T21:24:46.731Z,0.23
2023-02-26T21:27:16.739Z,0.30
2023-02-26T21:29:46.499Z,0.33
2023-02-26T21:32:16.238Z,0.37
2023-02-26T21:34:45.838Z,0.40
2023-02-26T21:37:15.421Z,0.40
2023-02-26T21:39:44.914Z,0.40
2023-02-26T21:42:14.895Z,0.33
2023-02-26T21:44:44.501Z,0.37
2023-02-26T21:47:13.946Z,0.50
2023-02-26T21:49:43.785Z,0.40
2023-02-26T21:52:13.775Z,0.30
2023-02-26T21:54:43.269Z,0.30
2023-02-26T21:57:12.913Z,0.47
2023-02-26T21:59:42.427Z,0.40
2023-02-26T22:02:13.527Z,0.30
2023-02-26T22:04:43.059Z,0.33
2023-02-26T22:07:12.911Z,0.40
2023-02-26T22:09:44.708Z,0.47
2023-02-26T22:12:14.485Z,0.40
2023-02-26T22:14:44.177Z,0.50
2023-02-26T22:17:13.868Z,0.50
2023-02-26T22:19:43.384Z,0.70
2023-02-26T22:22:12.833Z,0.30
2023-02-26T22:24:42.269Z,0.40
2023-02-26T22:27:12.238Z,0.50
2023-02-26T22:29:41.699Z,0.37
2023-02-26T22:32:11.209Z,0.47
2023-02-26T22:34:40.663Z,0.30
2023-02-26T22:37:10.097Z,0.50
2023-02-26T22:39:39.544Z,0.50
2023-02-26T22:42:08.994Z,0.50
2023-02-26T22:44:38.427Z,0.70
2023-02-26T22:47:07.855Z,0.50
2023-02-26T22:49:37.471Z,0.53
2023-02-26T22:52:07.769Z,0.60
2023-02-26T22:54:38.838Z,0.80
2023-02-26T22:57:08.868Z,0.57
2023-02-26T22:59:38.328Z,0.60
2023-02-26T23:02:07.832Z,0.70
2023-02-26T23:04:37.281Z,0.70
2023-02-26T23:07:06.711Z,0.63
2023-02-26T23:09:37.321Z,0.63
2023-02-26T23:12:06.973Z,0.67
2023-02-26T23:14:36.761Z,0.63
2023-02-26T23:17:06.202Z,0.57
2023-02-26T23:19:35.644Z,0.80
2023-02-26T23:22:05.073Z,0.70
2023-02-26T23:24:34.541Z,0.53
2023-02-26T23:27:03.964Z,0.63
2023-02-26T23:29:33.412Z,0.70
2023-02-26T23:32:02.964Z,0.70
2023-02-26T23:34:32.386Z,0.80
2023-02-26T23:37:01.829Z,0.70
2023-02-26T23:39:31.479Z,0.60
2023-02-26T23:42:01.372Z,0.67
2023-02-26T23:44:30.952Z,0.50
2023-02-26T23:47:00.377Z,0.80
2023-02-26T23:49:29.816Z,0.73
2023-02-26T23:51:59.268Z,0.60
2023-02-26T23:54:28.783Z,0.80
2023-02-26T23:56:58.240Z,0.80
2023-02-26T23:59:27.695Z,0.80
